sensor_id;sensor_type;location;lat;lon;timestamp;temperature;humidity
10538;DHT22;5317;49.048;8.468;2023-02-01T00:00:26;8.80;78.50
10538;DHT22;5317;49.048;8.468;2023-02-01T00:02:53;8.70;78.20
10538;DHT22;5317;49.048;8.468;2023-02-01T00:05:19;8.70;78.70
10538;DHT22;5317;49.048;8.468;2023-02-01T00:07:48;8.70;78.50
10538;DHT22;5317;49.048;8.468;2023-02-01T00:10:15;8.70;78.60
10538;DHT22;5317;49.048;8.468;2023-02-01T00:12:42;8.70;78.70
10538;DHT22;5317;49.048;8.468;2023-02-01T00:15:10;8.90;78.50
10538;DHT22;5317;49.048;8.468;2023-02-01T00:17:37;8.80;77.90
10538;DHT22;5317;49.048;8.468;2023-02-01T00:20:05;8.70;78.10
10538;DHT22;5317;49.048;8.468;2023-02-01T00:22:32;8.70;78.30
10538;DHT22;5317;49.048;8.468;2023-02-01T00:24:59;8.70;78.00
10538;DHT22;5317;49.048;8.468;2023-02-01T00:27:25;8.70;78.30
10538;DHT22;5317;49.048;8.468;2023-02-01T00:29:58;8.70;78.10
10538;DHT22;5317;49.048;8.468;2023-02-01T00:32:26;8.70;78.20
10538;DHT22;5317;49.048;8.468;2023-02-01T00:34:59;8.70;78.20
10538;DHT22;5317;49.048;8.468;2023-02-01T00:37:26;8.70;78.00
10538;DHT22;5317;49.048;8.468;2023-02-01T00:39:53;8.70;77.80
10538;DHT22;5317;49.048;8.468;2023-02-01T00:42:21;8.70;77.70
10538;DHT22;5317;49.048;8.468;2023-02-01T00:44:48;8.80;77.90
10538;DHT22;5317;49.048;8.468;2023-02-01T00:47:15;8.80;77.60
10538;DHT22;5317;49.048;8.468;2023-02-01T00:49:43;8.90;77.50
10538;DHT22;5317;49.048;8.468;2023-02-01T00:52:10;8.90;77.30
10538;DHT22;5317;49.048;8.468;2023-02-01T00:54:37;8.90;77.00
10538;DHT22;5317;49.048;8.468;2023-02-01T00:57:04;9.00;76.70
10538;DHT22;5317;49.048;8.468;2023-02-01T00:59:31;9.00;76.50
10538;DHT22;5317;49.048;8.468;2023-02-01T01:01:58;8.90;76.70
10538;DHT22;5317;49.048;8.468;2023-02-01T01:04:25;8.90;76.70
10538;DHT22;5317;49.048;8.468;2023-02-01T01:06:53;8.90;76.70
10538;DHT22;5317;49.048;8.468;2023-02-01T01:09:20;8.90;76.70
10538;DHT22;5317;49.048;8.468;2023-02-01T01:14:51;9.00;76.90
10538;DHT22;5317;49.048;8.468;2023-02-01T01:17:21;9.00;76.90
10538;DHT22;5317;49.048;8.468;2023-02-01T01:19:47;9.00;76.90
10538;DHT22;5317;49.048;8.468;2023-02-01T01:22:16;9.10;76.70
10538;DHT22;5317;49.048;8.468;2023-02-01T01:24:43;9.10;76.50
10538;DHT22;5317;49.048;8.468;2023-02-01T01:27:10;9.00;77.00
10538;DHT22;5317;49.048;8.468;2023-02-01T01:29:36;9.10;77.20
10538;DHT22;5317;49.048;8.468;2023-02-01T01:32:06;9.20;76.70
10538;DHT22;5317;49.048;8.468;2023-02-01T01:34:33;9.10;76.70
10538;DHT22;5317;49.048;8.468;2023-02-01T01:37:00;9.20;76.40
10538;DHT22;5317;49.048;8.468;2023-02-01T01:39:29;9.30;76.40
10538;DHT22;5317;49.048;8.468;2023-02-01T01:41:56;9.20;76.30
10538;DHT22;5317;49.048;8.468;2023-02-01T01:44:58;9.10;76.30
10538;DHT22;5317;49.048;8.468;2023-02-01T01:47:27;9.10;76.50
10538;DHT22;5317;49.048;8.468;2023-02-01T01:49:55;9.20;76.30
10538;DHT22;5317;49.048;8.468;2023-02-01T01:52:23;9.20;75.90
10538;DHT22;5317;49.048;8.468;2023-02-01T01:54:53;9.10;76.20
10538;DHT22;5317;49.048;8.468;2023-02-01T01:57:23;9.10;76.40
10538;DHT22;5317;49.048;8.468;2023-02-01T01:59:57;9.00;76.40
10538;DHT22;5317;49.048;8.468;2023-02-01T02:02:25;9.10;76.20
10538;DHT22;5317;49.048;8.468;2023-02-01T02:04:51;9.10;76.30
10538;DHT22;5317;49.048;8.468;2023-02-01T02:07:23;9.00;76.30
10538;DHT22;5317;49.048;8.468;2023-02-01T02:09:52;9.00;76.40
10538;DHT22;5317;49.048;8.468;2023-02-01T02:12:19;9.00;76.40
10538;DHT22;5317;49.048;8.468;2023-02-01T02:14:46;9.00;76.60
10538;DHT22;5317;49.048;8.468;2023-02-01T02:17:23;9.00;76.20
10538;DHT22;5317;49.048;8.468;2023-02-01T02:20:26;9.10;76.10
10538;DHT22;5317;49.048;8.468;2023-02-01T02:26:24;9.10;76.00
10538;DHT22;5317;49.048;8.468;2023-02-01T02:32:03;9.10;76.40
10538;DHT22;5317;49.048;8.468;2023-02-01T02:34:37;9.00;76.70
10538;DHT22;5317;49.048;8.468;2023-02-01T02:37:14;8.90;77.00
10538;DHT22;5317;49.048;8.468;2023-02-01T02:39:48;9.00;77.30
10538;DHT22;5317;49.048;8.468;2023-02-01T02:42:25;8.90;77.30
10538;DHT22;5317;49.048;8.468;2023-02-01T02:45:16;8.80;77.40
10538;DHT22;5317;49.048;8.468;2023-02-01T02:48:08;8.80;77.60
10538;DHT22;5317;49.048;8.468;2023-02-01T02:50:42;8.70;78.10
10538;DHT22;5317;49.048;8.468;2023-02-01T02:53:32;8.70;78.20
10538;DHT22;5317;49.048;8.468;2023-02-01T02:56:19;8.70;78.10
10538;DHT22;5317;49.048;8.468;2023-02-01T02:59:06;8.70;78.30
10538;DHT22;5317;49.048;8.468;2023-02-01T03:01:51;8.80;78.20
10538;DHT22;5317;49.048;8.468;2023-02-01T03:04:36;8.90;77.70
10538;DHT22;5317;49.048;8.468;2023-02-01T03:07:15;8.90;77.50
10538;DHT22;5317;49.048;8.468;2023-02-01T03:10:03;8.80;77.50
10538;DHT22;5317;49.048;8.468;2023-02-01T03:12:34;8.80;77.60
10538;DHT22;5317;49.048;8.468;2023-02-01T03:15:21;8.70;77.80
10538;DHT22;5317;49.048;8.468;2023-02-01T03:17:51;8.80;78.10
10538;DHT22;5317;49.048;8.468;2023-02-01T03:20:20;8.80;78.40
10538;DHT22;5317;49.048;8.468;2023-02-01T03:22:49;8.90;78.30
10538;DHT22;5317;49.048;8.468;2023-02-01T03:25:20;9.00;78.30
10538;DHT22;5317;49.048;8.468;2023-02-01T03:27:51;9.10;77.70
10538;DHT22;5317;49.048;8.468;2023-02-01T03:30:21;9.20;77.50
10538;DHT22;5317;49.048;8.468;2023-02-01T03:32:51;9.20;77.50
10538;DHT22;5317;49.048;8.468;2023-02-01T03:35:28;9.30;77.20
10538;DHT22;5317;49.048;8.468;2023-02-01T03:38:04;9.40;77.00
10538;DHT22;5317;49.048;8.468;2023-02-01T03:40:35;9.20;76.80
10538;DHT22;5317;49.048;8.468;2023-02-01T03:43:05;9.20;77.30
10538;DHT22;5317;49.048;8.468;2023-02-01T03:45:36;9.20;77.00
10538;DHT22;5317;49.048;8.468;2023-02-01T03:48:06;9.20;76.90
10538;DHT22;5317;49.048;8.468;2023-02-01T03:50:34;9.30;76.60
10538;DHT22;5317;49.048;8.468;2023-02-01T03:53:08;9.40;76.50
10538;DHT22;5317;49.048;8.468;2023-02-01T03:55:36;9.40;76.20
10538;DHT22;5317;49.048;8.468;2023-02-01T03:58:07;9.30;76.20
10538;DHT22;5317;49.048;8.468;2023-02-01T04:00:34;9.30;76.20
10538;DHT22;5317;49.048;8.468;2023-02-01T04:03:02;9.30;76.20
10538;DHT22;5317;49.048;8.468;2023-02-01T04:05:30;9.30;76.00
10538;DHT22;5317;49.048;8.468;2023-02-01T04:07:57;9.20;75.90
10538;DHT22;5317;49.048;8.468;2023-02-01T04:10:26;9.10;76.60
10538;DHT22;5317;49.048;8.468;2023-02-01T04:12:54;9.10;77.30
10538;DHT22;5317;49.048;8.468;2023-02-01T04:15:21;9.00;77.60
10538;DHT22;5317;49.048;8.468;2023-02-01T04:17:48;9.00;77.80
10538;DHT22;5317;49.048;8.468;2023-02-01T04:20:15;9.00;78.30
10538;DHT22;5317;49.048;8.468;2023-02-01T04:22:43;9.00;78.30
10538;DHT22;5317;49.048;8.468;2023-02-01T04:25:11;9.00;78.20
10538;DHT22;5317;49.048;8.468;2023-02-01T04:27:39;9.00;78.30
10538;DHT22;5317;49.048;8.468;2023-02-01T04:30:07;9.00;78.30
10538;DHT22;5317;49.048;8.468;2023-02-01T04:32:35;8.90;78.10
10538;DHT22;5317;49.048;8.468;2023-02-01T04:35:03;9.00;78.40
10538;DHT22;5317;49.048;8.468;2023-02-01T04:37:30;9.10;78.80
10538;DHT22;5317;49.048;8.468;2023-02-01T04:39:57;9.20;78.80
10538;DHT22;5317;49.048;8.468;2023-02-01T04:42:24;9.20;78.90
10538;DHT22;5317;49.048;8.468;2023-02-01T04:44:52;9.20;78.70
10538;DHT22;5317;49.048;8.468;2023-02-01T04:47:19;9.10;79.00
10538;DHT22;5317;49.048;8.468;2023-02-01T04:49:46;9.10;79.40
10538;DHT22;5317;49.048;8.468;2023-02-01T04:52:13;9.00;79.80
10538;DHT22;5317;49.048;8.468;2023-02-01T04:54:40;8.90;80.00
10538;DHT22;5317;49.048;8.468;2023-02-01T04:57:06;8.90;80.60
10538;DHT22;5317;49.048;8.468;2023-02-01T04:59:33;9.00;80.70
10538;DHT22;5317;49.048;8.468;2023-02-01T05:02:02;9.00;80.10
10538;DHT22;5317;49.048;8.468;2023-02-01T05:04:29;9.10;80.20
10538;DHT22;5317;49.048;8.468;2023-02-01T05:06:55;9.00;80.10
10538;DHT22;5317;49.048;8.468;2023-02-01T05:09:23;9.00;80.10
10538;DHT22;5317;49.048;8.468;2023-02-01T05:11:49;9.00;80.00
10538;DHT22;5317;49.048;8.468;2023-02-01T05:14:34;9.00;79.70
10538;DHT22;5317;49.048;8.468;2023-02-01T05:17:02;8.90;79.50
10538;DHT22;5317;49.048;8.468;2023-02-01T05:19:29;8.90;79.60
10538;DHT22;5317;49.048;8.468;2023-02-01T05:21:56;8.90;80.50
10538;DHT22;5317;49.048;8.468;2023-02-01T05:24:23;8.90;79.90
10538;DHT22;5317;49.048;8.468;2023-02-01T05:26:49;8.80;80.00
10538;DHT22;5317;49.048;8.468;2023-02-01T05:29:17;8.90;81.10
10538;DHT22;5317;49.048;8.468;2023-02-01T05:31:44;9.00;80.10
10538;DHT22;5317;49.048;8.468;2023-02-01T05:34:13;9.00;79.70
10538;DHT22;5317;49.048;8.468;2023-02-01T05:36:41;9.10;79.50
10538;DHT22;5317;49.048;8.468;2023-02-01T05:39:08;9.10;79.40
10538;DHT22;5317;49.048;8.468;2023-02-01T05:41:35;9.10;79.30
10538;DHT22;5317;49.048;8.468;2023-02-01T05:44:03;9.10;78.90
10538;DHT22;5317;49.048;8.468;2023-02-01T05:46:30;9.10;79.40
10538;DHT22;5317;49.048;8.468;2023-02-01T05:48:58;9.10;79.20
10538;DHT22;5317;49.048;8.468;2023-02-01T05:51:26;9.20;79.90
10538;DHT22;5317;49.048;8.468;2023-02-01T05:53:53;9.10;78.80
10538;DHT22;5317;49.048;8.468;2023-02-01T05:56:19;9.10;78.80
10538;DHT22;5317;49.048;8.468;2023-02-01T05:58:46;9.20;78.60
10538;DHT22;5317;49.048;8.468;2023-02-01T06:01:13;9.10;78.40
10538;DHT22;5317;49.048;8.468;2023-02-01T06:03:40;9.10;79.10
10538;DHT22;5317;49.048;8.468;2023-02-01T06:06:07;9.20;78.90
10538;DHT22;5317;49.048;8.468;2023-02-01T06:08:35;9.30;78.60
10538;DHT22;5317;49.048;8.468;2023-02-01T06:11:03;9.30;78.20
10538;DHT22;5317;49.048;8.468;2023-02-01T06:13:31;9.20;77.80
10538;DHT22;5317;49.048;8.468;2023-02-01T06:15:58;9.30;78.30
10538;DHT22;5317;49.048;8.468;2023-02-01T06:18:25;9.30;78.00
10538;DHT22;5317;49.048;8.468;2023-02-01T06:20:53;9.30;78.20
10538;DHT22;5317;49.048;8.468;2023-02-01T06:23:19;9.20;78.20
10538;DHT22;5317;49.048;8.468;2023-02-01T06:25:51;9.20;78.70
10538;DHT22;5317;49.048;8.468;2023-02-01T06:28:19;9.20;79.50
10538;DHT22;5317;49.048;8.468;2023-02-01T06:30:46;9.10;79.70
10538;DHT22;5317;49.048;8.468;2023-02-01T06:33:13;9.10;79.40
10538;DHT22;5317;49.048;8.468;2023-02-01T06:35:40;9.10;79.60
10538;DHT22;5317;49.048;8.468;2023-02-01T06:38:09;9.10;80.10
10538;DHT22;5317;49.048;8.468;2023-02-01T06:40:36;9.20;79.50
10538;DHT22;5317;49.048;8.468;2023-02-01T06:43:05;9.20;79.20
10538;DHT22;5317;49.048;8.468;2023-02-01T06:45:32;9.20;78.80
10538;DHT22;5317;49.048;8.468;2023-02-01T06:47:59;9.10;79.00
10538;DHT22;5317;49.048;8.468;2023-02-01T06:50:26;9.20;79.60
10538;DHT22;5317;49.048;8.468;2023-02-01T06:52:53;9.30;79.50
10538;DHT22;5317;49.048;8.468;2023-02-01T06:55:20;9.40;78.90
10538;DHT22;5317;49.048;8.468;2023-02-01T06:57:47;9.30;78.30
10538;DHT22;5317;49.048;8.468;2023-02-01T07:00:16;9.30;78.30
10538;DHT22;5317;49.048;8.468;2023-02-01T07:02:43;9.30;78.80
10538;DHT22;5317;49.048;8.468;2023-02-01T07:05:10;9.40;78.70
10538;DHT22;5317;49.048;8.468;2023-02-01T07:07:36;9.40;78.30
10538;DHT22;5317;49.048;8.468;2023-02-01T07:10:04;9.40;78.00
10538;DHT22;5317;49.048;8.468;2023-02-01T07:12:31;9.40;78.10
10538;DHT22;5317;49.048;8.468;2023-02-01T07:14:58;9.40;78.70
10538;DHT22;5317;49.048;8.468;2023-02-01T07:17:26;9.40;79.30
10538;DHT22;5317;49.048;8.468;2023-02-01T07:19:54;9.40;78.70
10538;DHT22;5317;49.048;8.468;2023-02-01T07:22:22;9.40;78.80
10538;DHT22;5317;49.048;8.468;2023-02-01T07:24:49;9.20;78.90
10538;DHT22;5317;49.048;8.468;2023-02-01T07:27:16;9.30;79.10
10538;DHT22;5317;49.048;8.468;2023-02-01T07:29:43;9.30;79.10
10538;DHT22;5317;49.048;8.468;2023-02-01T07:32:10;9.10;79.40
10538;DHT22;5317;49.048;8.468;2023-02-01T07:34:38;9.10;79.80
10538;DHT22;5317;49.048;8.468;2023-02-01T07:37:05;9.00;80.10
10538;DHT22;5317;49.048;8.468;2023-02-01T07:39:32;9.00;80.90
10538;DHT22;5317;49.048;8.468;2023-02-01T07:41:59;9.00;79.90
10538;DHT22;5317;49.048;8.468;2023-02-01T07:44:26;8.90;80.00
10538;DHT22;5317;49.048;8.468;2023-02-01T07:46:52;9.00;80.00
10538;DHT22;5317;49.048;8.468;2023-02-01T07:49:19;9.00;79.80
10538;DHT22;5317;49.048;8.468;2023-02-01T07:51:47;9.00;80.00
10538;DHT22;5317;49.048;8.468;2023-02-01T07:54:14;9.00;80.10
10538;DHT22;5317;49.048;8.468;2023-02-01T07:56:41;9.00;80.00
10538;DHT22;5317;49.048;8.468;2023-02-01T07:59:08;9.10;79.80
10538;DHT22;5317;49.048;8.468;2023-02-01T08:01:36;9.00;79.70
10538;DHT22;5317;49.048;8.468;2023-02-01T08:04:04;9.00;80.30
10538;DHT22;5317;49.048;8.468;2023-02-01T08:06:32;9.00;79.80
10538;DHT22;5317;49.048;8.468;2023-02-01T08:09:01;9.10;79.10
10538;DHT22;5317;49.048;8.468;2023-02-01T08:11:29;9.20;78.60
10538;DHT22;5317;49.048;8.468;2023-02-01T08:13:56;9.30;78.40
10538;DHT22;5317;49.048;8.468;2023-02-01T08:16:23;9.30;78.90
10538;DHT22;5317;49.048;8.468;2023-02-01T08:18:50;9.40;78.00
10538;DHT22;5317;49.048;8.468;2023-02-01T08:21:19;9.40;77.70
10538;DHT22;5317;49.048;8.468;2023-02-01T08:23:47;9.40;77.80
10538;DHT22;5317;49.048;8.468;2023-02-01T08:26:17;9.50;78.00
10538;DHT22;5317;49.048;8.468;2023-02-01T08:28:46;9.50;77.70
10538;DHT22;5317;49.048;8.468;2023-02-01T08:31:16;9.50;77.70
10538;DHT22;5317;49.048;8.468;2023-02-01T08:33:48;9.50;78.00
10538;DHT22;5317;49.048;8.468;2023-02-01T08:36:16;9.50;77.20
10538;DHT22;5317;49.048;8.468;2023-02-01T08:38:43;9.40;77.40
10538;DHT22;5317;49.048;8.468;2023-02-01T08:41:12;9.40;77.80
10538;DHT22;5317;49.048;8.468;2023-02-01T08:43:41;9.50;78.00
10538;DHT22;5317;49.048;8.468;2023-02-01T08:46:09;9.50;77.50
10538;DHT22;5317;49.048;8.468;2023-02-01T08:48:36;9.50;77.40
10538;DHT22;5317;49.048;8.468;2023-02-01T08:51:05;9.40;77.80
10538;DHT22;5317;49.048;8.468;2023-02-01T08:53:32;9.40;78.00
10538;DHT22;5317;49.048;8.468;2023-02-01T08:56:00;9.50;78.00
10538;DHT22;5317;49.048;8.468;2023-02-01T08:58:27;9.40;77.90
10538;DHT22;5317;49.048;8.468;2023-02-01T09:00:55;9.30;77.80
10538;DHT22;5317;49.048;8.468;2023-02-01T09:03:22;9.20;78.10
10538;DHT22;5317;49.048;8.468;2023-02-01T09:05:49;9.30;78.60
10538;DHT22;5317;49.048;8.468;2023-02-01T09:08:16;9.50;78.10
10538;DHT22;5317;49.048;8.468;2023-02-01T09:10:44;9.40;77.60
10538;DHT22;5317;49.048;8.468;2023-02-01T09:13:11;9.40;77.50
10538;DHT22;5317;49.048;8.468;2023-02-01T09:15:38;9.50;77.60
10538;DHT22;5317;49.048;8.468;2023-02-01T09:18:06;9.50;77.60
10538;DHT22;5317;49.048;8.468;2023-02-01T09:20:33;9.70;77.10
10538;DHT22;5317;49.048;8.468;2023-02-01T09:23:00;9.70;76.70
10538;DHT22;5317;49.048;8.468;2023-02-01T09:25:27;9.70;76.70
10538;DHT22;5317;49.048;8.468;2023-02-01T09:27:54;9.70;76.90
10538;DHT22;5317;49.048;8.468;2023-02-01T09:30:21;9.70;76.60
10538;DHT22;5317;49.048;8.468;2023-02-01T09:32:47;9.70;76.50
10538;DHT22;5317;49.048;8.468;2023-02-01T09:35:16;9.80;76.50
10538;DHT22;5317;49.048;8.468;2023-02-01T09:37:43;9.80;76.00
10538;DHT22;5317;49.048;8.468;2023-02-01T09:40:12;9.90;76.10
10538;DHT22;5317;49.048;8.468;2023-02-01T09:42:52;10.00;75.00
10538;DHT22;5317;49.048;8.468;2023-02-01T09:45:28;10.00;74.50
10538;DHT22;5317;49.048;8.468;2023-02-01T09:48:02;10.00;74.50
10538;DHT22;5317;49.048;8.468;2023-02-01T09:50:35;9.90;76.00
10538;DHT22;5317;49.048;8.468;2023-02-01T09:53:06;10.00;75.10
10538;DHT22;5317;49.048;8.468;2023-02-01T09:55:40;9.90;76.30
10538;DHT22;5317;49.048;8.468;2023-02-01T09:58:13;10.00;75.10
10538;DHT22;5317;49.048;8.468;2023-02-01T10:00:46;10.00;75.00
10538;DHT22;5317;49.048;8.468;2023-02-01T10:03:17;10.00;75.00
10538;DHT22;5317;49.048;8.468;2023-02-01T10:06:09;10.00;74.90
10538;DHT22;5317;49.048;8.468;2023-02-01T10:08:51;9.90;76.00
10538;DHT22;5317;49.048;8.468;2023-02-01T10:11:27;9.90;75.90
10538;DHT22;5317;49.048;8.468;2023-02-01T10:14:27;9.90;76.90
10538;DHT22;5317;49.048;8.468;2023-02-01T10:17:01;9.80;75.30
10538;DHT22;5317;49.048;8.468;2023-02-01T10:19:39;9.80;74.90
10538;DHT22;5317;49.048;8.468;2023-02-01T10:22:18;9.80;75.30
10538;DHT22;5317;49.048;8.468;2023-02-01T10:24:51;9.90;75.00
10538;DHT22;5317;49.048;8.468;2023-02-01T10:27:26;10.00;73.10
10538;DHT22;5317;49.048;8.468;2023-02-01T10:29:59;10.00;73.30
10538;DHT22;5317;49.048;8.468;2023-02-01T10:32:30;10.20;73.20
10538;DHT22;5317;49.048;8.468;2023-02-01T10:34:59;10.30;72.70
10538;DHT22;5317;49.048;8.468;2023-02-01T10:37:31;10.40;72.80
10538;DHT22;5317;49.048;8.468;2023-02-01T10:40:01;10.40;72.20
10538;DHT22;5317;49.048;8.468;2023-02-01T10:42:31;10.50;72.10
10538;DHT22;5317;49.048;8.468;2023-02-01T10:45:00;10.40;71.60
10538;DHT22;5317;49.048;8.468;2023-02-01T10:47:28;10.20;71.80
10538;DHT22;5317;49.048;8.468;2023-02-01T10:50:02;10.20;71.90
10538;DHT22;5317;49.048;8.468;2023-02-01T10:52:38;10.20;72.30
10538;DHT22;5317;49.048;8.468;2023-02-01T10:55:32;10.10;71.50
10538;DHT22;5317;49.048;8.468;2023-02-01T10:58:01;10.10;72.20
10538;DHT22;5317;49.048;8.468;2023-02-01T11:00:37;10.10;72.30
10538;DHT22;5317;49.048;8.468;2023-02-01T11:03:21;10.10;71.30
10538;DHT22;5317;49.048;8.468;2023-02-01T11:05:48;10.20;71.80
10538;DHT22;5317;49.048;8.468;2023-02-01T11:08:17;10.10;71.70
10538;DHT22;5317;49.048;8.468;2023-02-01T11:10:45;10.10;71.80
10538;DHT22;5317;49.048;8.468;2023-02-01T11:13:15;10.20;71.70
10538;DHT22;5317;49.048;8.468;2023-02-01T11:15:46;10.20;71.70
10538;DHT22;5317;49.048;8.468;2023-02-01T11:18:26;10.20;71.80
10538;DHT22;5317;49.048;8.468;2023-02-01T11:20:53;10.20;71.20
10538;DHT22;5317;49.048;8.468;2023-02-01T11:23:24;10.20;71.40
10538;DHT22;5317;49.048;8.468;2023-02-01T11:25:54;10.20;71.40
10538;DHT22;5317;49.048;8.468;2023-02-01T11:28:23;10.20;71.20
10538;DHT22;5317;49.048;8.468;2023-02-01T11:30:53;10.10;71.30
10538;DHT22;5317;49.048;8.468;2023-02-01T11:33:24;9.90;72.50
10538;DHT22;5317;49.048;8.468;2023-02-01T11:35:57;9.90;72.80
10538;DHT22;5317;49.048;8.468;2023-02-01T11:38:30;9.90;72.70
10538;DHT22;5317;49.048;8.468;2023-02-01T11:41:12;10.00;72.30
10538;DHT22;5317;49.048;8.468;2023-02-01T11:43:54;9.90;72.50
10538;DHT22;5317;49.048;8.468;2023-02-01T11:46:26;10.10;71.40
10538;DHT22;5317;49.048;8.468;2023-02-01T11:48:56;10.10;71.00
10538;DHT22;5317;49.048;8.468;2023-02-01T11:51:44;10.10;71.00
10538;DHT22;5317;49.048;8.468;2023-02-01T11:54:29;10.10;70.70
10538;DHT22;5317;49.048;8.468;2023-02-01T11:57:09;10.10;70.60
10538;DHT22;5317;49.048;8.468;2023-02-01T11:59:55;10.20;70.50
10538;DHT22;5317;49.048;8.468;2023-02-01T12:03:01;10.20;69.80
10538;DHT22;5317;49.048;8.468;2023-02-01T12:05:45;10.10;69.30
10538;DHT22;5317;49.048;8.468;2023-02-01T12:08:28;10.20;69.70
10538;DHT22;5317;49.048;8.468;2023-02-01T12:11:10;10.20;69.90
10538;DHT22;5317;49.048;8.468;2023-02-01T12:13:55;10.40;69.80
10538;DHT22;5317;49.048;8.468;2023-02-01T12:16:31;10.40;69.50
10538;DHT22;5317;49.048;8.468;2023-02-01T12:19:19;10.50;69.50
10538;DHT22;5317;49.048;8.468;2023-02-01T12:22:00;10.40;69.30
10538;DHT22;5317;49.048;8.468;2023-02-01T12:24:46;10.50;69.90
10538;DHT22;5317;49.048;8.468;2023-02-01T12:27:33;10.50;69.70
10538;DHT22;5317;49.048;8.468;2023-02-01T12:33:03;10.40;68.70
10538;DHT22;5317;49.048;8.468;2023-02-01T12:35:50;10.40;68.80
10538;DHT22;5317;49.048;8.468;2023-02-01T12:38:32;10.40;68.30
10538;DHT22;5317;49.048;8.468;2023-02-01T12:41:19;10.50;68.60
10538;DHT22;5317;49.048;8.468;2023-02-01T12:43:53;10.50;68.10
10538;DHT22;5317;49.048;8.468;2023-02-01T12:46:25;10.50;68.50
10538;DHT22;5317;49.048;8.468;2023-02-01T12:48:57;10.30;68.60
10538;DHT22;5317;49.048;8.468;2023-02-01T12:51:28;10.40;68.60
10538;DHT22;5317;49.048;8.468;2023-02-01T12:54:01;10.50;68.80
10538;DHT22;5317;49.048;8.468;2023-02-01T12:56:35;10.60;68.80
10538;DHT22;5317;49.048;8.468;2023-02-01T12:59:14;10.60;68.60
10538;DHT22;5317;49.048;8.468;2023-02-01T13:01:46;10.70;68.30
10538;DHT22;5317;49.048;8.468;2023-02-01T13:04:19;10.70;67.90
10538;DHT22;5317;49.048;8.468;2023-02-01T13:06:50;10.70;67.90
10538;DHT22;5317;49.048;8.468;2023-02-01T13:09:23;10.70;67.50
10538;DHT22;5317;49.048;8.468;2023-02-01T13:11:54;10.70;68.10
10538;DHT22;5317;49.048;8.468;2023-02-01T13:14:32;10.70;68.20
10538;DHT22;5317;49.048;8.468;2023-02-01T13:17:02;10.90;68.30
10538;DHT22;5317;49.048;8.468;2023-02-01T13:19:39;10.90;68.20
10538;DHT22;5317;49.048;8.468;2023-02-01T13:22:11;11.00;68.30
10538;DHT22;5317;49.048;8.468;2023-02-01T13:24:41;10.90;68.20
10538;DHT22;5317;49.048;8.468;2023-02-01T13:27:11;11.00;68.20
10538;DHT22;5317;49.048;8.468;2023-02-01T13:29:47;11.00;68.30
10538;DHT22;5317;49.048;8.468;2023-02-01T13:32:40;10.90;67.60
10538;DHT22;5317;49.048;8.468;2023-02-01T13:35:29;11.00;67.80
10538;DHT22;5317;49.048;8.468;2023-02-01T13:41:24;10.90;67.00
10538;DHT22;5317;49.048;8.468;2023-02-01T13:43:55;10.90;66.90
10538;DHT22;5317;49.048;8.468;2023-02-01T13:46:24;10.90;66.40
10538;DHT22;5317;49.048;8.468;2023-02-01T13:48:53;10.90;66.30
10538;DHT22;5317;49.048;8.468;2023-02-01T13:51:34;10.90;66.40
10538;DHT22;5317;49.048;8.468;2023-02-01T13:54:03;11.10;66.60
10538;DHT22;5317;49.048;8.468;2023-02-01T13:56:40;11.00;66.70
10538;DHT22;5317;49.048;8.468;2023-02-01T14:08:23;10.70;66.00
10538;DHT22;5317;49.048;8.468;2023-02-01T14:10:53;10.80;66.30
10538;DHT22;5317;49.048;8.468;2023-02-01T14:13:27;10.90;65.90
10538;DHT22;5317;49.048;8.468;2023-02-01T14:16:15;10.90;65.60
10538;DHT22;5317;49.048;8.468;2023-02-01T14:18:58;10.90;65.40
10538;DHT22;5317;49.048;8.468;2023-02-01T14:21:29;10.90;65.40
10538;DHT22;5317;49.048;8.468;2023-02-01T14:23:59;10.90;65.20
10538;DHT22;5317;49.048;8.468;2023-02-01T14:26:41;11.10;65.30
10538;DHT22;5317;49.048;8.468;2023-02-01T14:29:29;11.10;64.40
10538;DHT22;5317;49.048;8.468;2023-02-01T14:32:03;11.10;65.40
10538;DHT22;5317;49.048;8.468;2023-02-01T14:34:38;11.00;64.60
10538;DHT22;5317;49.048;8.468;2023-02-01T14:37:13;11.10;64.50
10538;DHT22;5317;49.048;8.468;2023-02-01T14:39:55;11.00;64.20
10538;DHT22;5317;49.048;8.468;2023-02-01T14:42:26;10.90;64.10
10538;DHT22;5317;49.048;8.468;2023-02-01T14:44:56;10.80;64.20
10538;DHT22;5317;49.048;8.468;2023-02-01T14:47:43;10.80;64.60
10538;DHT22;5317;49.048;8.468;2023-02-01T14:50:27;11.00;65.40
10538;DHT22;5317;49.048;8.468;2023-02-01T14:53:17;11.10;64.10
10538;DHT22;5317;49.048;8.468;2023-02-01T14:55:49;11.20;63.90
10538;DHT22;5317;49.048;8.468;2023-02-01T14:58:25;11.20;64.60
10538;DHT22;5317;49.048;8.468;2023-02-01T15:00:55;11.20;63.90
10538;DHT22;5317;49.048;8.468;2023-02-01T15:06:21;11.30;63.40
10538;DHT22;5317;49.048;8.468;2023-02-01T15:08:53;11.30;63.40
10538;DHT22;5317;49.048;8.468;2023-02-01T15:11:24;11.40;63.50
10538;DHT22;5317;49.048;8.468;2023-02-01T15:13:52;11.30;63.40
10538;DHT22;5317;49.048;8.468;2023-02-01T15:16:21;11.40;63.50
10538;DHT22;5317;49.048;8.468;2023-02-01T15:18:51;11.40;63.50
10538;DHT22;5317;49.048;8.468;2023-02-01T15:21:43;11.30;63.30
10538;DHT22;5317;49.048;8.468;2023-02-01T15:24:12;11.30;63.00
10538;DHT22;5317;49.048;8.468;2023-02-01T15:26:40;11.20;63.30
10538;DHT22;5317;49.048;8.468;2023-02-01T15:29:11;11.20;63.30
10538;DHT22;5317;49.048;8.468;2023-02-01T15:31:40;11.20;63.40
10538;DHT22;5317;49.048;8.468;2023-02-01T15:34:09;11.30;63.40
10538;DHT22;5317;49.048;8.468;2023-02-01T15:36:36;11.20;63.30
10538;DHT22;5317;49.048;8.468;2023-02-01T15:39:19;11.30;63.20
10538;DHT22;5317;49.048;8.468;2023-02-01T15:41:52;11.30;63.20
10538;DHT22;5317;49.048;8.468;2023-02-01T15:44:27;11.30;63.20
10538;DHT22;5317;49.048;8.468;2023-02-01T15:46:55;11.30;63.90
10538;DHT22;5317;49.048;8.468;2023-02-01T15:49:27;11.30;63.00
10538;DHT22;5317;49.048;8.468;2023-02-01T15:51:55;11.40;63.20
10538;DHT22;5317;49.048;8.468;2023-02-01T15:54:26;11.30;63.00
10538;DHT22;5317;49.048;8.468;2023-02-01T15:57:00;11.40;63.10
10538;DHT22;5317;49.048;8.468;2023-02-01T15:59:32;11.30;62.80
10538;DHT22;5317;49.048;8.468;2023-02-01T16:02:01;11.30;62.40
10538;DHT22;5317;49.048;8.468;2023-02-01T16:04:30;11.40;63.20
10538;DHT22;5317;49.048;8.468;2023-02-01T16:07:00;11.30;62.70
10538;DHT22;5317;49.048;8.468;2023-02-01T16:09:37;11.30;62.80
10538;DHT22;5317;49.048;8.468;2023-02-01T16:12:23;11.30;62.60
10538;DHT22;5317;49.048;8.468;2023-02-01T16:14:53;11.30;63.00
10538;DHT22;5317;49.048;8.468;2023-02-01T16:17:20;11.30;62.90
10538;DHT22;5317;49.048;8.468;2023-02-01T16:19:48;11.30;62.80
10538;DHT22;5317;49.048;8.468;2023-02-01T16:22:15;11.30;62.70
10538;DHT22;5317;49.048;8.468;2023-02-01T16:24:42;11.20;62.90
10538;DHT22;5317;49.048;8.468;2023-02-01T16:27:09;11.20;63.10
10538;DHT22;5317;49.048;8.468;2023-02-01T16:29:36;11.20;62.90
10538;DHT22;5317;49.048;8.468;2023-02-01T16:32:03;11.00;63.00
10538;DHT22;5317;49.048;8.468;2023-02-01T16:34:31;11.10;63.20
10538;DHT22;5317;49.048;8.468;2023-02-01T16:36:59;11.10;63.20
10538;DHT22;5317;49.048;8.468;2023-02-01T16:39:26;11.20;63.00
10538;DHT22;5317;49.048;8.468;2023-02-01T16:41:54;11.30;62.70
10538;DHT22;5317;49.048;8.468;2023-02-01T16:44:21;11.20;62.60
10538;DHT22;5317;49.048;8.468;2023-02-01T16:46:48;11.20;62.40
10538;DHT22;5317;49.048;8.468;2023-02-01T16:49:19;11.20;62.30